Terminal Aerodrome Forecast
Issued by NWS

Home | Current Version | Previous Version | Graphics & Text | Print | Product List | Glossary On
Versions: 1 2 3 4 5 6 7 8 9 10 11 12 13 14 15 16 17 18 19
842
FTUS43 KTOP 271515 AAA
TAFFOE
TAF AMD
KFOE 271515Z 2715/2812 04005KT P6SM VCTS BKN040CB
      TEMPO 2715/2716 VRB15G25KT 4SM TSRA BR BKN035CB
     FM271700 12008KT P6SM VCTS SCT025 BKN035CB
     FM272300 35008KT P6SM BKN040
     FM280200 34009KT P6SM BKN025
     FM280900 32008KT P6SM SCT035=

USA.gov is the U.S. government's official web portal to all federal, state and local government web resources and services.